Airfield :
LOGIN :

Register | Disclaimer

   EN    FR    IT 

 










Legend :    VFR   Marginal VFR   IFR   Intensive IFR   Very Intensive IFR
Visi :
Ceiling :
>= 8 km
>= 3000ft
5 to 8 km
1000 to 3000 ft
1500m to 5 km
500 to 1000 ft
800 to 1500m
200 to 500 ft
< 800m
< 200 ft
Symbols :   Thunderstorms  Fog  Heavy snow  Heavy precipitations  Wind > 20 kt
SIGMETs :     Misc.  Thunderstorms  Icing  Turbulence  Mountain Waves  Volcanic Ashes







- Airport Elevation : 33 ft
- IATA code : MHZ


EGUN - RAF Mildenhall

CURRENT METAR :
  • 252058Z AUTO 11008KT 9999 CLR 16/16 A3019 RMK AO2 SLP226 T01570157 53005

EXPIRED METARs :
  • 251958Z AUTO 12010KT 9999 CLR 19/17 A3018 RMK AO2 SLP223 T01850165
  • 251858Z AUTO 13009KT 9999 CLR 21/16 A3017 RMK AO2 SLP219 T02080160

TAF TAF EGUN
Valid from the 25 at 20:00 until the 27 at 02:00 UTC


252005Z 2520/2702 VRB06KT 9999 SKC QNH3014INS
BECMG 2606/2607 11010KT 9999 FEW040 QNH2993INS
TEMPO 2611/2617 13012G20KT TX25/2613Z TN12/2601Z
No reported NOTAMs for that airfield.



MET'MAP, your aeronautical weather chart ! - Copyright ORBIFLY December 2007 - Disclaimer

ORBIFLY MET'MAP TEAM :

Programming & Development : Alexandra Zaïnal
Concept & Development : Baudouin d'Aumeries
Co-Development & Prog : Marc-Olivier Méhu
Technical & hardware support : Manuel Goepfert

Contact : metmap@orbifly.com




SOURCES & CREDITS :

   NOAA